Time;durP1;ratioP1;P1;durP2;ratioP2;P2;SDS_P1;SDS_P2;PMS_P1;PMS_P2;Temp;Humidity;BMP_temperature;BMP_pressure;BME280_temperature;BME280_humidity;BME280_pressure;Samples;Min_cycle;Max_cycle;Signal;HPM_P1;HPM_P2
2024/04/05 00:01:31;;;;;;;3.53;2.17;;;0.10;86.80;;;;;;5039675;28;20018;-85
2024/04/05 00:03:57;;;;;;;2.35;1.80;;;0.10;87.10;;;;;;5026148;28;20112;-84
2024/04/05 00:06:23;;;;;;;2.60;1.63;;;0.10;86.90;;;;;;5034281;28;20474;-77
2024/04/05 00:08:49;;;;;;;2.15;1.50;;;0.10;87.00;;;;;;5024256;28;20025;-80
2024/04/05 00:11:15;;;;;;;2.60;1.38;;;0.00;86.70;;;;;;5033074;28;20536;-79
2024/04/05 00:13:40;;;;;;;1.80;1.63;;;0.00;86.80;;;;;;5032909;28;20057;-80
2024/04/05 00:16:07;;;;;;;4.32;2.58;;;-0.10;86.80;;;;;;5031350;28;20421;-80
2024/04/05 00:18:34;;;;;;;1.60;1.47;;;-0.10;87.00;;;;;;5032534;28;20583;-82
2024/04/05 00:21:04;;;;;;;1.92;1.60;;;-0.20;87.20;;;;;;5032726;28;20028;-79
2024/04/05 00:23:31;;;;;;;3.15;1.67;;;-0.30;87.30;;;;;;5015240;28;20041;-79
2024/04/05 00:25:57;;;;;;;;;;;-0.20;87.60;;;;;;5033543;28;20014;-80
2024/04/05 00:28:23;;;;;;;2.87;1.60;;;-0.30;87.30;;;;;;5030688;28;19913;-80
2024/04/05 00:30:49;;;;;;;1.80;1.38;;;-0.30;87.60;;;;;;5014660;28;20117;-80
2024/04/05 00:33:15;;;;;;;2.45;2.08;;;-0.40;87.40;;;;;;5032333;28;20056;-77
2024/04/05 00:35:51;;;;;;;2.63;1.63;;;-0.30;87.60;;;;;;5014815;28;20033;-79
2024/04/05 00:38:18;;;;;;;3.00;1.80;;;-0.30;87.80;;;;;;5020164;28;20028;-78
2024/04/05 00:40:45;;;;;;;2.40;1.48;;;-0.30;87.70;;;;;;5032711;28;20022;-77
2024/04/05 00:43:11;;;;;;;2.20;1.73;;;-0.20;87.80;;;;;;5031986;28;20025;-78
2024/04/05 00:45:38;;;;;;;2.33;1.88;;;-0.30;87.50;;;;;;5032294;28;20048;-79
2024/04/05 00:48:04;;;;;;;2.80;1.92;;;-0.40;87.60;;;;;;5032032;28;20022;-79
2024/04/05 00:50:32;;;;;;;2.60;1.92;;;-0.40;87.70;;;;;;5032037;28;20018;-79
2024/04/05 00:52:59;;;;;;;2.20;1.92;;;-0.40;87.80;;;;;;5032090;28;20382;-79
2024/04/05 00:55:26;;;;;;;2.95;1.63;;;-0.40;88.00;;;;;;5014386;28;20057;-79
2024/04/05 00:57:54;;;;;;;4.32;2.33;;;-0.40;88.00;;;;;;5014126;28;20116;-80
2024/04/05 01:00:23;;;;;;;;;;;-0.40;87.80;;;;;;5032491;28;20022;-79
2024/04/05 01:02:49;;;;;;;3.13;1.70;;;-0.40;87.70;;;;;;5031874;28;19913;-79
2024/04/05 01:05:15;;;;;;;1.90;1.65;;;-0.50;87.90;;;;;;5031627;28;20093;-79
2024/04/05 01:07:44;;;;;;;2.47;1.95;;;-0.50;88.20;;;;;;5031811;28;20068;-79
2024/04/05 01:10:09;;;;;;;2.92;2.42;;;-0.40;88.20;;;;;;5032018;28;20101;-79
2024/04/05 01:12:35;;;;;;;2.00;1.80;;;-0.40;87.90;;;;;;5014023;28;20470;-78
2024/04/05 01:15:02;;;;;;;4.50;2.40;;;-0.40;88.30;;;;;;5031627;28;20036;-79
2024/04/05 01:17:28;;;;;;;3.30;2.50;;;-0.40;88.30;;;;;;5031554;28;20397;-80
2024/04/05 01:19:55;;;;;;;4.10;2.13;;;-0.40;88.20;;;;;;5012335;28;20377;-78
2024/04/05 01:22:29;;;;;;;4.78;2.75;;;-0.30;88.00;;;;;;5031513;28;20033;-80
2024/04/05 01:24:55;;;;;;;3.42;1.85;;;-0.30;88.10;;;;;;5032007;28;20026;-79
2024/04/05 01:27:21;;;;;;;3.67;2.10;;;-0.30;88.40;;;;;;5031741;28;20465;-80
2024/04/05 01:29:47;;;;;;;2.42;1.83;;;-0.30;87.90;;;;;;5031972;28;20036;-79
2024/04/05 01:32:12;;;;;;;3.97;1.92;;;-0.30;87.80;;;;;;5031765;28;20036;-81
2024/04/05 01:34:38;;;;;;;3.40;2.00;;;-0.30;87.80;;;;;;5033907;28;20417;-79
2024/04/05 01:37:05;;;;;;;2.92;1.85;;;-0.30;87.90;;;;;;5031501;28;20096;-79
2024/04/05 01:39:31;;;;;;;4.32;1.70;;;-0.20;87.90;;;;;;5032580;28;20026;-79
2024/04/05 01:41:57;;;;;;;2.53;2.05;;;-0.20;87.70;;;;;;5035714;28;20466;-79
2024/04/05 01:44:22;;;;;;;1.90;1.45;;;-0.20;87.20;;;;;;5017873;28;20033;-79
2024/04/05 01:46:48;;;;;;;2.38;1.65;;;-0.20;86.90;;;;;;5035452;28;20022;-78
2024/04/05 01:49:14;;;;;;;2.47;1.80;;;-0.30;86.60;;;;;;5035385;28;20021;-79
2024/04/05 01:51:40;;;;;;;2.45;1.73;;;-0.30;87.00;;;;;;5035643;28;20040;-78
2024/04/05 01:54:05;;;;;;;2.42;1.70;;;-0.30;87.00;;;;;;5012762;28;20072;-80
2024/04/05 01:56:34;;;;;;;2.92;1.60;;;-0.20;86.80;;;;;;5026340;28;20073;-79
2024/04/05 01:59:00;;;;;;;3.00;2.00;;;-0.30;86.70;;;;;;5021177;28;20025;-80
2024/04/05 02:01:26;;;;;;;3.47;1.80;;;-0.30;86.60;;;;;;5035240;28;20382;-79
2024/04/05 02:03:51;;;;;;;7.45;3.85;;;-0.30;86.90;;;;;;5035383;28;20087;-79
2024/04/05 02:06:18;;;;;;;2.60;1.80;;;-0.20;86.80;;;;;;5035254;28;20108;-79
2024/04/05 02:08:44;;;;;;;2.95;1.60;;;-0.20;86.90;;;;;;5035123;28;20038;-80
2024/04/05 02:11:09;;;;;;;2.35;1.75;;;-0.20;86.50;;;;;;5034900;28;20018;-79
2024/04/05 02:13:37;;;;;;;2.97;2.28;;;-0.20;86.50;;;;;;5035302;28;20427;-80
2024/04/05 02:16:03;;;;;;;1.67;1.25;;;-0.20;86.60;;;;;;5036663;28;20037;-79
2024/04/05 02:18:29;;;;;;;3.17;1.52;;;-0.20;86.60;;;;;;5036672;28;20132;-79
2024/04/05 02:20:57;;;;;;;5.40;2.22;;;-0.20;86.40;;;;;;5034813;28;20093;-79
2024/04/05 02:23:22;;;;;;;2.85;1.38;;;-0.10;86.60;;;;;;5034985;28;20026;-79
2024/04/05 02:25:49;;;;;;;2.58;1.52;;;-0.10;86.60;;;;;;5017185;28;20091;-79
2024/04/05 02:28:15;;;;;;;2.50;1.65;;;-0.10;86.60;;;;;;5033566;28;20026;-78
2024/04/05 02:30:42;;;;;;;2.67;1.58;;;-0.10;86.40;;;;;;5034761;28;20031;-79
2024/04/05 02:33:08;;;;;;;2.92;1.85;;;-0.10;86.20;;;;;;5034576;28;20026;-80
2024/04/05 02:35:34;;;;;;;1.48;1.23;;;-0.10;86.20;;;;;;5034691;28;20026;-80
2024/04/05 02:38:00;;;;;;;5.35;2.17;;;0.00;86.00;;;;;;5011224;28;20029;-79
2024/04/05 02:40:25;;;;;;;1.75;1.65;;;-0.10;85.60;;;;;;5034587;28;20385;-79
2024/04/05 02:42:51;;;;;;;3.15;1.60;;;-0.30;85.90;;;;;;5032843;28;20029;-80
2024/04/05 02:45:17;;;;;;;7.20;1.92;;;-0.30;86.30;;;;;;5033181;28;20060;-79
2024/04/05 02:47:43;;;;;;;3.55;1.45;;;-0.30;86.20;;;;;;5034433;28;20035;-80
2024/04/05 02:50:08;;;;;;;2.15;1.50;;;-0.20;86.20;;;;;;5034110;28;20028;-80
2024/04/05 02:52:34;;;;;;;3.92;2.25;;;-0.30;86.00;;;;;;5016001;28;20029;-80
2024/04/05 02:55:00;;;;;;;3.10;1.40;;;-0.30;85.80;;;;;;5034518;28;20497;-79
2024/04/05 02:57:26;;;;;;;2.40;1.75;;;-0.40;85.50;;;;;;5034330;28;20061;-81
2024/04/05 02:59:52;;;;;;;1.67;1.25;;;-0.40;85.50;;;;;;5031710;28;20025;-80
2024/04/05 03:02:17;;;;;;;2.95;1.27;;;-0.60;85.70;;;;;;5033766;28;20056;-79
2024/04/05 03:04:43;;;;;;;3.22;1.58;;;-0.60;86.20;;;;;;5016472;28;20348;-79
2024/04/05 03:07:09;;;;;;;1.50;1.40;;;-0.70;86.40;;;;;;5018699;28;20063;-79
2024/04/05 03:09:36;;;;;;;2.30;1.45;;;-0.70;86.60;;;;;;5016363;28;20103;-78
2024/04/05 03:12:02;;;;;;;2.08;1.30;;;-0.70;86.70;;;;;;5034297;28;20049;-79
2024/04/05 03:14:28;;;;;;;1.77;1.23;;;-0.70;86.60;;;;;;5017788;28;20079;-77
2024/04/05 03:16:54;;;;;;;3.60;1.30;;;-0.70;86.70;;;;;;5032802;28;20048;-79
2024/04/05 03:19:20;;;;;;;3.17;1.80;;;-0.60;86.50;;;;;;5034464;28;20064;-80
2024/04/05 03:21:46;;;;;;;0.80;0.80;;;-0.60;86.50;;;;;;5034312;28;20501;-79
2024/04/05 03:24:12;;;;;;;3.67;1.15;;;-0.60;86.40;;;;;;5033935;28;20060;-80
2024/04/05 03:26:39;;;;;;;3.15;1.27;;;-0.60;86.60;;;;;;5010582;28;20434;-80
2024/04/05 03:29:06;;;;;;;3.83;1.40;;;-0.60;86.10;;;;;;5025561;28;20025;-79
2024/04/05 03:31:32;;;;;;;2.08;1.15;;;-0.60;86.10;;;;;;5015110;28;20673;-79
2024/04/05 03:33:58;;;;;;;1.52;1.15;;;-0.70;85.90;;;;;;5032286;28;20106;-80
2024/04/05 03:36:23;;;;;;;1.95;1.50;;;-0.70;86.20;;;;;;5033493;28;20030;-79
2024/04/05 03:38:50;;;;;;;3.60;2.03;;;-0.70;85.80;;;;;;5033413;28;20025;-79
2024/04/05 03:41:16;;;;;;;2.60;2.22;;;-0.80;85.80;;;;;;5033848;28;20022;-79
2024/04/05 03:43:42;;;;;;;3.58;1.35;;;-0.90;86.40;;;;;;5033382;28;20067;-79
2024/04/05 03:46:08;;;;;;;2.63;1.58;;;-0.90;86.60;;;;;;5029687;28;20032;-80
2024/04/05 03:48:34;;;;;;;2.85;1.60;;;-0.90;86.40;;;;;;5033390;28;20505;-78
2024/04/05 03:50:59;;;;;;;2.30;1.17;;;-0.90;86.80;;;;;;5033191;28;20033;-80
2024/04/05 03:53:25;;;;;;;1.67;1.20;;;-0.80;86.60;;;;;;5033129;28;20029;-79
2024/04/05 03:55:55;;;;;;;1.98;1.25;;;-0.70;86.60;;;;;;5033220;28;20026;-77
2024/04/05 03:58:21;;;;;;;2.67;1.20;;;-0.60;86.60;;;;;;5033071;28;20120;-78
2024/04/05 04:00:51;;;;;;;3.00;2.15;;;-0.50;86.50;;;;;;5033228;28;20049;-80
2024/04/05 04:03:17;;;;;;;5.05;2.03;;;-0.40;86.20;;;;;;5021701;28;20030;-81
2024/04/05 04:05:44;;;;;;;3.05;1.52;;;-0.30;86.20;;;;;;5032970;28;20025;-80
2024/04/05 04:08:10;;;;;;;2.72;1.40;;;-0.30;85.90;;;;;;5034109;28;20023;-81
2024/04/05 04:10:37;;;;;;;2.17;1.50;;;-0.20;85.50;;;;;;5015914;28;20022;-79
2024/04/05 04:13:03;;;;;;;12.25;1.77;;;-0.30;84.90;;;;;;5033211;28;20657;-80
2024/04/05 04:15:29;;;;;;;2.20;1.60;;;-0.30;85.50;;;;;;5032725;28;20041;-82
2024/04/05 04:17:55;;;;;;;5.38;1.98;;;-0.30;85.40;;;;;;5011769;28;20068;-81
2024/04/05 04:20:21;;;;;;;6.10;2.30;;;-0.30;85.30;;;;;;5014708;28;20029;-82
2024/04/05 04:22:47;;;;;;;1.40;1.30;;;-0.30;85.70;;;;;;5022801;28;20459;-81
2024/04/05 04:25:13;;;;;;;3.05;1.48;;;-0.30;85.90;;;;;;5013574;28;20033;-79
2024/04/05 04:27:39;;;;;;;1.90;1.65;;;-0.30;85.50;;;;;;5004938;28;20117;-81
2024/04/05 04:30:08;;;;;;;3.50;1.63;;;-0.20;85.30;;;;;;5012536;28;20111;-80
2024/04/05 04:32:36;;;;;;;1.98;1.50;;;-0.20;85.30;;;;;;5013529;28;20026;-81
2024/04/05 04:35:03;;;;;;;4.32;1.42;;;-0.10;84.70;;;;;;5012528;28;20407;-82
2024/04/05 04:37:29;;;;;;;1.88;1.40;;;-0.20;84.40;;;;;;5013187;28;20022;-81
2024/04/05 04:39:55;;;;;;;2.42;1.30;;;-0.20;84.60;;;;;;5015145;28;20034;-80
2024/04/05 04:42:21;;;;;;;4.15;1.58;;;-0.10;84.50;;;;;;5010926;28;20025;-82
2024/04/05 04:44:47;;;;;;;3.15;1.80;;;-0.10;84.30;;;;;;5011985;28;20084;-81
2024/04/05 04:47:12;;;;;;;2.70;1.80;;;-0.20;84.10;;;;;;5011403;28;20034;-79
2024/04/05 04:49:39;;;;;;;4.68;1.52;;;-0.30;84.30;;;;;;5027858;28;20440;-80
2024/04/05 04:52:05;;;;;;;3.90;2.90;;;-0.40;84.90;;;;;;5012366;28;20018;-80
2024/04/05 04:54:31;;;;;;;2.55;1.52;;;-0.30;85.00;;;;;;5012760;28;20037;-82
2024/04/05 04:56:57;;;;;;;2.25;1.63;;;-0.30;84.60;;;;;;4995000;28;20030;-80
2024/04/05 04:59:28;;;;;;;2.45;1.90;;;-0.20;84.50;;;;;;5013104;28;20230;-81
2024/04/05 05:01:56;;;;;;;6.40;2.08;;;-0.20;84.60;;;;;;5011411;28;20430;-79
2024/04/05 05:04:22;;;;;;;1.17;0.95;;;-0.30;85.10;;;;;;5001363;28;20045;-81
2024/04/05 05:06:50;;;;;;;1.73;1.45;;;-0.30;85.10;;;;;;5012785;28;20029;-81
2024/04/05 05:09:16;;;;;;;7.70;1.80;;;-0.30;84.70;;;;;;5012826;28;20410;-83
2024/04/05 05:11:42;;;;;;;4.72;1.70;;;-0.30;84.40;;;;;;5012468;28;20037;-81
2024/04/05 05:14:09;;;;;;;2.67;1.80;;;-0.20;84.20;;;;;;5011560;28;20030;-81
2024/04/05 05:16:38;;;;;;;6.22;1.90;;;-0.10;83.90;;;;;;5012115;28;20097;-80
2024/04/05 05:19:04;;;;;;;6.85;2.05;;;-0.10;83.60;;;;;;5028360;28;20050;-81
2024/04/05 05:21:32;;;;;;;4.68;2.22;;;-0.10;83.70;;;;;;5031852;28;20026;-81
2024/04/05 05:23:58;;;;;;;3.00;2.38;;;0.00;83.70;;;;;;5031717;28;20021;-82
2024/04/05 05:26:24;;;;;;;4.40;2.05;;;0.00;83.50;;;;;;5031776;28;20036;-80
2024/04/05 05:28:50;;;;;;;6.65;2.17;;;0.00;83.50;;;;;;5032341;28;20482;-81
2024/04/05 05:31:15;;;;;;;6.18;2.55;;;0.20;83.70;;;;;;5030286;28;20105;-82
2024/04/05 05:33:41;;;;;;;5.82;2.30;;;0.30;83.30;;;;;;5021227;28;20036;-82
2024/04/05 05:36:07;;;;;;;7.57;2.97;;;0.30;83.30;;;;;;5014207;28;20053;-81
2024/04/05 05:38:33;;;;;;;3.30;2.25;;;0.50;83.10;;;;;;5031533;28;20041;-81
2024/04/05 05:40:59;;;;;;;4.00;2.95;;;0.40;82.70;;;;;;5032318;28;20355;-82
2024/04/05 05:43:25;;;;;;;5.65;2.28;;;0.30;82.80;;;;;;5031704;28;20461;-80
2024/04/05 05:45:50;;;;;;;7.28;2.58;;;0.20;83.50;;;;;;5007506;28;20122;-80
2024/04/05 05:48:16;;;;;;;4.93;1.67;;;0.20;83.20;;;;;;5027432;28;20030;-79
2024/04/05 05:50:42;;;;;;;4.13;1.98;;;0.20;83.00;;;;;;5031613;28;20021;-81
2024/04/05 05:53:08;;;;;;;3.90;1.63;;;0.20;83.10;;;;;;5029574;28;20040;-79
2024/04/05 05:55:35;;;;;;;5.18;2.35;;;0.20;82.60;;;;;;5031031;28;20021;-79
2024/04/05 05:58:01;;;;;;;9.35;3.97;;;0.20;82.90;;;;;;5031488;28;20025;-82
2024/04/05 06:00:27;;;;;;;3.28;2.33;;;0.40;82.80;;;;;;5027716;28;20481;-79
2024/04/05 06:02:53;;;;;;;2.97;2.40;;;0.60;82.10;;;;;;5021927;28;20116;-81
2024/04/05 06:05:22;;;;;;;5.88;2.53;;;0.50;82.00;;;;;;5031034;28;20025;-80
2024/04/05 06:07:48;;;;;;;2.58;2.17;;;0.40;82.20;;;;;;5007548;28;20502;-82
2024/04/05 06:10:15;;;;;;;5.45;3.03;;;0.40;82.30;;;;;;5029671;28;20052;-80
2024/04/05 06:12:41;;;;;;;12.80;3.85;;;0.40;82.10;;;;;;5033408;28;20053;-80
2024/04/05 06:15:07;;;;;;;5.30;2.58;;;0.50;81.40;;;;;;5031192;28;20101;-80
2024/04/05 06:17:35;;;;;;;3.70;2.25;;;0.30;81.60;;;;;;5030849;28;20062;-82
2024/04/05 06:20:06;;;;;;;4.57;3.72;;;0.20;82.10;;;;;;5030858;28;20025;-81
2024/04/05 06:22:33;;;;;;;4.82;2.53;;;0.30;82.30;;;;;;5027982;28;20017;-80
2024/04/05 06:24:59;;;;;;;3.35;2.78;;;0.40;81.70;;;;;;5031122;28;20076;-82
2024/04/05 06:27:25;;;;;;;4.03;2.40;;;0.40;81.90;;;;;;5015191;28;20033;-82
2024/04/05 06:29:55;;;;;;;7.45;2.83;;;0.40;81.80;;;;;;5034629;28;20505;-82
2024/04/05 06:32:22;;;;;;;2.90;2.15;;;0.50;81.30;;;;;;5034787;28;20031;-82
2024/04/05 06:34:50;;;;;;;2.40;2.05;;;0.60;80.60;;;;;;5034754;28;20123;-81
2024/04/05 06:37:16;;;;;;;;;;;0.60;80.60;;;;;;5035035;28;20017;-81
2024/04/05 06:39:42;;;;;;;3.05;2.25;;;0.40;80.30;;;;;;5034492;28;19905;-82
2024/04/05 06:42:09;;;;;;;3.80;2.80;;;0.30;81.00;;;;;;5018297;28;20470;-79
2024/04/05 06:44:35;;;;;;;4.80;2.97;;;0.50;81.20;;;;;;5035526;28;20290;-82
2024/04/05 06:47:08;;;;;;;5.25;2.95;;;0.80;80.70;;;;;;5036929;28;20048;-82
2024/04/05 06:49:35;;;;;;;10.40;3.90;;;1.20;80.30;;;;;;5034737;28;20033;-81
2024/04/05 06:52:04;;;;;;;5.78;3.05;;;1.30;79.30;;;;;;5034182;28;20029;-81
2024/04/05 06:54:34;;;;;;;3.95;2.50;;;1.30;78.30;;;;;;5034343;28;20536;-80
2024/04/05 06:57:00;;;;;;;4.30;3.45;;;1.10;78.90;;;;;;5033879;28;20390;-80
2024/04/05 06:59:28;;;;;;;4.93;2.53;;;1.10;78.80;;;;;;5034172;28;20018;-82
2024/04/05 07:01:55;;;;;;;7.85;3.78;;;1.40;79.00;;;;;;5034162;28;20021;-81
2024/04/05 07:04:23;;;;;;;8.27;3.28;;;1.70;78.10;;;;;;5022966;28;20124;-80
2024/04/05 07:06:55;;;;;;;11.35;3.95;;;1.80;77.40;;;;;;5033749;28;20421;-81
2024/04/05 07:09:25;;;;;;;3.97;2.42;;;1.60;77.40;;;;;;5034167;28;20106;-81
2024/04/05 07:11:52;;;;;;;4.60;2.08;;;1.60;77.30;;;;;;5027882;28;20024;-82
2024/04/05 07:14:18;;;;;;;5.22;2.65;;;1.60;76.60;;;;;;5019924;28;20437;-80
2024/04/05 07:16:46;;;;;;;7.78;2.75;;;1.90;76.90;;;;;;5025870;28;20022;-79
2024/04/05 07:19:16;;;;;;;2.97;2.67;;;2.70;75.80;;;;;;5026821;28;20380;-80
2024/04/05 07:21:45;;;;;;;7.20;2.92;;;3.20;73.80;;;;;;5033286;28;20061;-81
2024/04/05 07:24:11;;;;;;;9.82;3.95;;;3.80;72.60;;;;;;5012949;28;20038;-80
2024/04/05 07:26:37;;;;;;;4.90;2.97;;;4.00;70.20;;;;;;5029313;28;20025;-80
2024/04/05 07:29:03;;;;;;;8.57;3.55;;;3.50;69.80;;;;;;5033509;28;20033;-80
2024/04/05 07:31:29;;;;;;;8.98;3.90;;;3.30;71.00;;;;;;5029899;28;20021;-80
2024/04/05 07:33:55;;;;;;;10.88;3.92;;;3.30;71.00;;;;;;5033598;28;20025;-80
2024/04/05 07:36:20;;;;;;;7.60;4.05;;;3.50;70.60;;;;;;5032998;28;20024;-81
2024/04/05 07:38:48;;;;;;;8.13;4.55;;;3.40;70.60;;;;;;5029945;28;20036;-80
2024/04/05 07:41:14;;;;;;;11.18;4.55;;;4.00;71.70;;;;;;5033301;28;20394;-80
2024/04/05 07:43:41;;;;;;;12.38;4.00;;;4.60;68.80;;;;;;5032401;28;20029;-79
2024/04/05 07:46:07;;;;;;;6.20;3.70;;;4.20;67.00;;;;;;5033209;28;20092;-79
2024/04/05 07:48:33;;;;;;;11.20;4.00;;;4.90;68.20;;;;;;5034105;28;20030;-85
2024/04/05 07:50:59;;;;;;;4.78;2.70;;;6.40;66.70;;;;;;5033817;28;20436;-83
2024/04/05 07:53:26;;;;;;;6.60;2.58;;;6.90;63.00;;;;;;5020948;28;20372;-85
2024/04/05 07:55:52;;;;;;;3.13;2.58;;;7.00;60.30;;;;;;5035263;28;20039;-86
2024/04/05 07:58:19;;;;;;;4.15;2.80;;;6.20;60.70;;;;;;5037171;28;20055;-86
2024/04/05 08:00:45;;;;;;;6.82;3.75;;;6.70;61.40;;;;;;5039425;28;20014;-86
2024/04/05 08:03:12;;;;;;;4.73;3.67;;;7.10;61.70;;;;;;5026363;28;20108;-87
2024/04/05 08:05:38;;;;;;;4.18;3.10;;;9.10;61.00;;;;;;5009898;28;20716;-89
2024/04/05 08:08:05;;;;;;;7.95;4.20;;;11.20;57.10;;;;;;5008800;28;20064;-87
2024/04/05 08:10:31;;;;;;;4.18;3.28;;;11.80;52.10;;;;;;5004228;28;20054;-82
2024/04/05 08:12:57;;;;;;;8.98;4.03;;;11.20;50.90;;;;;;5004054;28;20515;-85
2024/04/05 08:15:23;;;;;;;13.80;4.95;;;10.50;50.90;;;;;;5006327;28;20034;-86
2024/04/05 08:17:49;;;;;;;6.07;4.22;;;10.30;52.70;;;;;;5009910;28;20046;-84
2024/04/05 08:20:16;;;;;;;6.45;4.13;;;10.40;51.40;;;;;;5008363;28;20506;-86
2024/04/05 08:22:41;;;;;;;7.88;4.10;;;10.00;50.30;;;;;;5010544;28;20566;-85
2024/04/05 08:25:08;;;;;;;7.78;4.38;;;8.50;51.90;;;;;;5012946;28;20030;-83
2024/04/05 08:27:34;;;;;;;9.95;4.68;;;7.50;53.70;;;;;;5010345;28;20545;-86
2024/04/05 08:30:00;;;;;;;5.82;4.03;;;7.70;55.70;;;;;;5009312;28;20026;-85
2024/04/05 08:32:26;;;;;;;7.50;4.25;;;8.20;56.10;;;;;;4994507;28;20528;-84
2024/04/05 08:34:52;;;;;;;8.60;4.70;;;9.10;53.30;;;;;;5017026;28;20053;-87
2024/04/05 08:37:18;;;;;;;5.40;4.18;;;9.00;53.40;;;;;;5034722;28;20475;-84
2024/04/05 08:39:44;;;;;;;6.43;4.00;;;9.20;53.40;;;;;;5031345;28;20093;-83
2024/04/05 08:42:17;;;;;;;8.82;5.18;;;10.10;52.40;;;;;;5033102;28;20068;-86
2024/04/05 08:44:44;;;;;;;9.52;5.15;;;10.50;50.00;;;;;;5031070;28;20067;-83
2024/04/05 08:47:11;;;;;;;6.35;4.65;;;10.10;49.80;;;;;;5033795;28;20018;-86
2024/04/05 08:49:37;;;;;;;9.55;7.10;;;10.70;50.90;;;;;;5033305;28;20038;-85
2024/04/05 08:52:03;;;;;;;9.73;4.63;;;11.00;48.60;;;;;;5019854;28;20045;-84
2024/04/05 08:54:33;;;;;;;7.05;5.30;;;11.40;50.00;;;;;;5034365;28;20413;-87
2024/04/05 08:57:00;;;;;;;12.68;6.43;;;12.90;48.30;;;;;;5035647;28;20116;-85
2024/04/05 08:59:28;;;;;;;8.13;5.72;;;13.40;45.80;;;;;;5036885;28;20021;-85
2024/04/05 09:01:57;;;;;;;9.70;5.45;;;13.10;45.60;;;;;;5010776;28;20124;-88
2024/04/05 09:04:23;;;;;;;12.20;7.45;;;12.30;45.70;;;;;;5033686;28;20045;-88
2024/04/05 09:06:50;;;;;;;8.73;5.60;;;12.00;47.30;;;;;;5014795;28;20121;-88
2024/04/05 09:09:35;;;;;;;10.00;6.25;;;12.40;46.40;;;;;;5024340;28;20025;-87
2024/04/05 09:12:07;;;;;;;10.13;5.63;;;12.40;46.30;;;;;;5031490;28;20552;-88
2024/04/05 09:14:37;;;;;;;12.05;8.77;;;13.10;44.80;;;;;;5036661;28;20026;-89
2024/04/05 09:17:23;;;;;;;10.27;5.63;;;13.20;45.10;;;;;;5036713;28;20039;-89
2024/04/05 09:19:49;;;;;;;15.25;10.32;;;14.00;43.90;;;;;;5016022;28;20383;-90
2024/04/05 09:22:25;;;;;;;8.45;6.38;;;13.30;43.90;;;;;;5032792;28;20040;-87
2024/04/05 09:25:04;;;;;;;11.65;7.40;;;13.00;44.60;;;;;;5040637;28;20029;-87
2024/04/05 09:27:31;;;;;;;11.70;8.35;;;12.90;43.50;;;;;;5030753;28;20022;-91
2024/04/05 09:30:02;;;;;;;13.77;8.13;;;13.20;44.20;;;;;;5027921;28;20045;-87
2024/04/05 09:32:28;;;;;;;9.32;8.38;;;13.70;43.00;;;;;;5045360;28;20029;-90
2024/04/05 09:34:56;;;;;;;12.55;8.18;;;13.50;43.30;;;;;;5046109;28;20048;-87
2024/04/05 09:37:25;;;;;;;11.82;8.00;;;14.10;42.80;;;;;;5043358;28;20032;-92
2024/04/05 09:39:52;;;;;;;13.18;9.48;;;14.50;42.00;;;;;;5036678;28;20037;-90
2024/04/05 09:42:22;;;;;;;12.95;8.25;;;14.40;41.30;;;;;;5033767;28;20021;-87
2024/04/05 09:44:55;;;;;;;11.65;8.93;;;13.40;41.90;;;;;;5032103;28;20486;-87
2024/04/05 09:47:22;;;;;;;11.30;8.10;;;13.20;42.70;;;;;;5028424;28;20017;-93
2024/04/05 09:49:49;;;;;;;11.18;7.53;;;13.20;42.50;;;;;;5021056;28;20155;-86
2024/04/05 09:52:26;;;;;;;14.37;8.60;;;13.10;42.00;;;;;;5034159;28;20117;-87
2024/04/05 09:55:00;;;;;;;12.75;9.15;;;12.60;42.50;;;;;;5013423;28;20094;-88
2024/04/05 09:57:29;;;;;;;12.25;8.30;;;12.40;42.90;;;;;;5041977;28;20017;-90
2024/04/05 09:59:57;;;;;;;9.60;7.40;;;13.20;42.70;;;;;;5037367;28;20092;-88
2024/04/05 10:02:23;;;;;;;12.90;8.68;;;13.70;41.50;;;;;;5023089;28;20034;-87
2024/04/05 10:04:50;;;;;;;13.97;8.47;;;13.80;41.00;;;;;;5043520;28;20068;-86
2024/04/05 10:07:15;;;;;;;10.00;8.73;;;14.20;41.10;;;;;;5036300;28;20024;-88
2024/04/05 10:09:41;;;;;;;9.32;8.32;;;14.40;40.30;;;;;;5040770;28;20021;-89
2024/04/05 10:12:17;;;;;;;11.18;8.68;;;15.10;40.80;;;;;;5039646;28;20022;-89
2024/04/05 10:14:55;;;;;;;13.05;9.50;;;14.80;39.70;;;;;;5046115;28;20056;-90
2024/04/05 10:17:27;;;;;;;11.27;8.32;;;15.00;39.30;;;;;;5028801;28;20395;-86
2024/04/05 10:20:03;;;;;;;13.55;8.50;;;14.20;40.30;;;;;;5035339;28;20033;-88
2024/04/05 10:22:29;;;;;;;15.77;9.63;;;14.80;40.10;;;;;;5017615;28;20417;-89
2024/04/05 10:24:55;;;;;;;13.93;9.00;;;14.80;39.50;;;;;;5041743;28;20037;-89
2024/04/05 10:27:26;;;;;;;10.88;8.35;;;13.50;39.60;;;;;;5035229;28;20423;-86
2024/04/05 10:30:06;;;;;;;15.48;9.27;;;12.10;41.00;;;;;;5036407;28;20048;-87
2024/04/05 10:32:33;;;;;;;15.73;9.88;;;10.50;42.40;;;;;;5007942;28;20057;-88
2024/04/05 10:35:06;;;;;;;16.77;10.13;;;9.50;44.30;;;;;;5021354;28;20093;-88
2024/04/05 10:37:33;;;;;;;15.45;10.32;;;8.60;45.50;;;;;;5037832;28;20018;-88
2024/04/05 10:40:10;;;;;;;15.20;9.80;;;7.80;47.10;;;;;;5017697;28;20032;-84
2024/04/05 10:42:37;;;;;;;12.90;9.40;;;7.50;48.10;;;;;;5030872;28;20097;-89
2024/04/05 10:45:05;;;;;;;14.88;9.23;;;7.10;49.00;;;;;;5039361;28;20025;-87
2024/04/05 10:47:33;;;;;;;15.63;9.55;;;6.70;49.80;;;;;;5010058;28;20035;-86
2024/04/05 10:50:04;;;;;;;14.50;8.32;;;6.50;50.20;;;;;;5050369;28;20052;-89
2024/04/05 10:52:33;;;;;;;19.08;10.45;;;6.40;51.00;;;;;;5018367;28;20033;-85
2024/04/05 10:55:12;;;;;;;13.95;9.25;;;6.00;52.10;;;;;;5031761;28;20052;-86
2024/04/05 10:57:38;;;;;;;13.30;9.10;;;5.40;53.40;;;;;;5024856;28;20025;-91
2024/04/05 11:00:05;;;;;;;14.35;9.77;;;5.10;53.90;;;;;;5037785;28;20104;-89
2024/04/05 11:02:32;;;;;;;12.15;8.85;;;5.10;53.80;;;;;;5032583;28;20026;-91
2024/04/05 11:05:10;;;;;;;17.00;9.98;;;5.00;54.30;;;;;;5007614;28;20466;-90
2024/04/05 11:07:39;;;;;;;10.10;6.68;;;4.90;55.00;;;;;;5036415;28;20025;-89
2024/04/05 11:10:21;;;;;;;23.55;10.32;;;4.70;55.50;;;;;;5017593;28;20025;-83
2024/04/05 11:12:48;;;;;;;13.23;8.10;;;4.60;56.40;;;;;;5031776;28;20038;-88
2024/04/05 11:15:18;;;;;;;16.33;10.77;;;4.50;56.80;;;;;;5038811;28;20048;-88
2024/04/05 11:17:46;;;;;;;22.27;10.32;;;4.50;56.50;;;;;;5024755;28;20056;-90
2024/04/05 11:20:13;;;;;;;;;;;4.60;56.40;;;;;;5005703;28;20026;-88
2024/04/05 11:22:41;;;;;;;15.82;9.85;;;4.80;55.70;;;;;;5034702;28;19916;-86
2024/04/05 11:25:08;;;;;;;11.60;9.05;;;4.70;55.90;;;;;;5023021;28;20045;-87
2024/04/05 11:27:34;;;;;;;18.27;9.18;;;4.60;56.10;;;;;;5013918;28;20025;-87
2024/04/05 11:30:04;;;;;;;14.93;8.82;;;4.60;56.20;;;;;;5017990;28;20056;-84
2024/04/05 11:32:32;;;;;;;11.68;6.28;;;4.70;56.10;;;;;;5028120;28;20046;-87
2024/04/05 11:35:02;;;;;;;16.23;10.02;;;4.70;56.10;;;;;;5032179;28;20092;-88
2024/04/05 11:37:28;;;;;;;16.05;8.93;;;4.60;56.30;;;;;;5035992;28;20033;-85
2024/04/05 11:39:55;;;;;;;16.10;8.52;;;4.60;56.30;;;;;;5025272;28;20034;-88
2024/04/05 11:42:21;;;;;;;22.17;9.90;;;4.50;56.50;;;;;;5034874;28;20032;-85
2024/04/05 11:44:48;;;;;;;14.13;9.55;;;4.40;57.10;;;;;;5032429;28;20042;-86
2024/04/05 11:47:14;;;;;;;13.60;9.55;;;4.50;57.00;;;;;;5009264;28;20475;-87
2024/04/05 11:49:40;;;;;;;14.60;9.60;;;4.80;56.40;;;;;;5036834;28;20033;-87
2024/04/05 11:52:07;;;;;;;14.05;9.75;;;4.70;56.20;;;;;;5046899;28;20044;-87
2024/04/05 11:54:33;;;;;;;14.93;8.75;;;4.60;56.20;;;;;;5032224;28;20033;-90
2024/04/05 11:56:59;;;;;;;18.92;9.48;;;4.40;56.50;;;;;;5038914;28;20025;-87
2024/04/05 11:59:25;;;;;;;12.95;10.10;;;4.40;56.90;;;;;;5037593;28;20021;-89
2024/04/05 12:01:52;;;;;;;12.35;8.95;;;4.60;56.80;;;;;;5040556;28;20053;-90
2024/04/05 12:04:18;;;;;;;12.00;8.90;;;4.70;56.30;;;;;;5035310;28;20025;-90
2024/04/05 12:06:45;;;;;;;16.20;10.07;;;4.60;56.30;;;;;;5034393;28;20100;-88
2024/04/05 12:09:12;;;;;;;20.08;10.10;;;4.80;56.50;;;;;;5038664;28;20086;-87
2024/04/05 12:11:38;;;;;;;16.52;10.75;;;4.90;56.50;;;;;;5041681;28;20030;-86
2024/04/05 12:14:03;;;;;;;16.02;10.05;;;5.10;56.10;;;;;;5046739;28;20100;-84
2024/04/05 12:16:30;;;;;;;18.05;9.93;;;5.10;56.00;;;;;;5050246;28;20018;-87
2024/04/05 12:18:57;;;;;;;15.43;9.32;;;5.00;56.00;;;;;;5035337;28;20356;-86
2024/04/05 12:21:23;;;;;;;14.48;10.80;;;5.10;56.20;;;;;;5023058;28;20048;-89
2024/04/05 12:23:48;;;;;;;12.50;9.95;;;5.10;56.40;;;;;;5046148;28;20033;-86
2024/04/05 12:26:14;;;;;;;16.90;10.30;;;5.10;56.20;;;;;;5036287;28;20025;-88
2024/04/05 12:28:40;;;;;;;13.00;10.20;;;5.20;56.20;;;;;;5029915;28;20033;-88
2024/04/05 12:31:07;;;;;;;17.95;11.77;;;5.20;56.00;;;;;;5029646;28;20033;-85
2024/04/05 12:33:32;;;;;;;15.77;8.77;;;5.20;56.10;;;;;;5027637;28;20029;-85
2024/04/05 12:36:03;;;;;;;15.23;8.63;;;5.30;56.20;;;;;;5026866;28;20038;-84
2024/04/05 12:38:38;;;;;;;16.77;9.80;;;5.30;56.00;;;;;;4998315;28;20387;-89
2024/04/05 12:41:08;;;;;;;15.52;8.98;;;5.70;56.10;;;;;;5025491;28;20404;-86
2024/04/05 12:43:37;;;;;;;20.98;9.82;;;6.10;55.70;;;;;;5030067;28;20071;-87
2024/04/05 12:46:04;;;;;;;21.10;10.32;;;6.20;55.10;;;;;;5015396;28;20478;-85
2024/04/05 12:48:31;;;;;;;15.55;9.80;;;6.30;54.40;;;;;;5029725;28;20025;-86